Time;durP1;ratioP1;P1;durP2;ratioP2;P2;SDS_P1;SDS_P2;PMS_P1;PMS_P2;Temp;Humidity;BMP_temperature;BMP_pressure;BME280_temperature;BME280_humidity;BME280_pressure;Samples;Min_cycle;Max_cycle;Signal;HPM_P1;HPM_P2
2021/05/04 00:00:12;;;;;;;14.52;8.32;;;;;;;;;;1501697;39;20038;-58
2021/05/04 00:01:13;;;;;;;14.23;8.60;;;;;;;;;;1501618;39;20353;-58
2021/05/04 00:02:14;;;;;;;13.98;7.90;;;;;;;;;;1501594;39;20031;-58
2021/05/04 00:03:15;;;;;;;12.85;8.25;;;;;;;;;;1501780;39;20031;-58
2021/05/04 00:04:16;;;;;;;11.32;7.25;;;;;;;;;;1501777;39;20027;-59
2021/05/04 00:05:17;;;;;;;11.10;7.60;;;;;;;;;;1501530;39;20302;-58
2021/05/04 00:06:19;;;;;;;13.95;7.57;;;;;;;;;;1501731;39;20030;-58
2021/05/04 00:07:20;;;;;;;13.52;7.95;;;;;;;;;;1501449;39;20034;-58
2021/05/04 00:08:22;;;;;;;14.65;8.27;;;;;;;;;;1501788;39;20031;-58
2021/05/04 00:09:23;;;;;;;15.13;8.65;;;;;;;;;;1501459;39;20287;-57
2021/05/04 00:10:24;;;;;;;14.90;7.60;;;;;;;;;;1501721;39;20027;-58
2021/05/04 00:11:25;;;;;;;12.98;7.15;;;;;;;;;;1501658;39;20022;-58
2021/05/04 00:12:27;;;;;;;14.25;8.77;;;;;;;;;;1501501;39;20061;-57
2021/05/04 00:13:28;;;;;;;13.30;7.38;;;;;;;;;;1501706;39;20027;-58
2021/05/04 00:14:31;;;;;;;14.73;7.85;;;;;;;;;;1501588;39;20298;-58
2021/05/04 00:15:31;;;;;;;11.90;7.53;;;;;;;;;;1496852;39;20413;-58
2021/05/04 00:16:33;;;;;;;13.40;7.93;;;;;;;;;;1496923;39;20027;-58
2021/05/04 00:17:34;;;;;;;12.05;7.78;;;;;;;;;;1501508;39;20049;-58
2021/05/04 00:18:35;;;;;;;12.43;7.05;;;;;;;;;;1501486;39;20034;-58
2021/05/04 00:19:37;;;;;;;13.48;7.97;;;;;;;;;;1501773;39;20026;-58
2021/05/04 00:20:39;;;;;;;13.73;6.95;;;;;;;;;;1501825;39;20099;-58
2021/05/04 00:21:41;;;;;;;11.98;7.15;;;;;;;;;;1501632;39;20023;-58
2021/05/04 00:22:42;;;;;;;13.40;7.57;;;;;;;;;;1501473;39;20030;-58
2021/05/04 00:23:43;;;;;;;8.85;6.80;;;;;;;;;;1501527;39;20038;-58
2021/05/04 00:24:44;;;;;;;11.60;7.35;;;;;;;;;;1501600;39;20046;-60
2021/05/04 00:25:46;;;;;;;12.30;6.53;;;;;;;;;;1501640;39;20031;-57
2021/05/04 00:26:46;;;;;;;13.45;6.95;;;;;;;;;;1501679;39;20033;-58
2021/05/04 00:27:48;;;;;;;11.13;7.30;;;;;;;;;;1501488;39;20027;-58
2021/05/04 00:28:49;;;;;;;12.80;6.63;;;;;;;;;;1501554;39;20030;-57
2021/05/04 00:29:50;;;;;;;13.02;6.55;;;;;;;;;;1501665;39;20027;-57
2021/05/04 00:30:51;;;;;;;11.90;6.72;;;;;;;;;;1501683;39;20038;-57
2021/05/04 00:31:52;;;;;;;9.38;6.72;;;;;;;;;;1501631;39;20031;-57
2021/05/04 00:32:53;;;;;;;11.77;6.93;;;;;;;;;;1501470;39;20030;-58
2021/05/04 00:33:54;;;;;;;10.82;6.50;;;;;;;;;;1501704;39;20026;-57
2021/05/04 00:34:55;;;;;;;11.73;6.45;;;;;;;;;;1501554;39;20297;-60
2021/05/04 00:35:57;;;;;;;10.05;6.32;;;;;;;;;;1501644;39;20049;-56
2021/05/04 00:36:59;;;;;;;10.63;6.95;;;;;;;;;;1501502;39;20387;-57
2021/05/04 00:38:00;;;;;;;9.63;6.35;;;;;;;;;;1501718;39;20140;-58
2021/05/04 00:39:01;;;;;;;10.75;6.45;;;;;;;;;;1501439;39;20034;-58
2021/05/04 00:40:03;;;;;;;10.18;6.55;;;;;;;;;;1501647;39;20027;-58
2021/05/04 00:41:06;;;;;;;9.93;6.78;;;;;;;;;;1501651;39;20027;-57
2021/05/04 00:42:07;;;;;;;10.35;6.63;;;;;;;;;;1501437;39;20412;-57
2021/05/04 00:43:08;;;;;;;9.75;6.65;;;;;;;;;;1501631;39;20034;-58
2021/05/04 00:44:09;;;;;;;11.40;6.10;;;;;;;;;;1501453;39;20345;-57
2021/05/04 00:45:11;;;;;;;8.27;6.07;;;;;;;;;;1501522;39;20042;-58
2021/05/04 00:46:12;;;;;;;9.30;6.10;;;;;;;;;;1501471;39;20385;-57
2021/05/04 00:47:13;;;;;;;9.32;6.43;;;;;;;;;;1501600;39;20031;-57
2021/05/04 00:48:14;;;;;;;15.45;6.43;;;;;;;;;;1501449;39;20275;-58
2021/05/04 00:49:15;;;;;;;9.60;6.15;;;;;;;;;;1496632;39;20031;-58
2021/05/04 00:50:17;;;;;;;8.75;5.97;;;;;;;;;;1496755;39;20035;-57
2021/05/04 00:51:20;;;;;;;9.30;6.07;;;;;;;;;;1501468;39;20027;-57
2021/05/04 00:52:23;;;;;;;9.63;6.30;;;;;;;;;;1501596;39;20038;-57
2021/05/04 00:53:25;;;;;;;9.85;6.15;;;;;;;;;;1501410;39;20034;-57
2021/05/04 00:54:26;;;;;;;7.78;5.88;;;;;;;;;;1501705;39;20048;-57
2021/05/04 00:55:30;;;;;;;8.52;5.78;;;;;;;;;;1501647;39;20059;-57
2021/05/04 00:56:32;;;;;;;9.80;6.05;;;;;;;;;;1501446;39;20279;-57
2021/05/04 00:57:33;;;;;;;8.40;6.65;;;;;;;;;;1501413;39;20315;-59
2021/05/04 00:58:35;;;;;;;10.35;6.85;;;;;;;;;;1501334;39;20114;-57
2021/05/04 00:59:37;;;;;;;10.35;6.18;;;;;;;;;;1501458;39;20148;-57
2021/05/04 01:00:38;;;;;;;10.75;6.18;;;;;;;;;;1501410;39;20271;-57
2021/05/04 01:01:39;;;;;;;9.68;6.10;;;;;;;;;;1501450;39;20034;-57
2021/05/04 01:02:40;;;;;;;7.75;5.75;;;;;;;;;;1501573;39;20023;-56
2021/05/04 01:03:43;;;;;;;9.45;5.82;;;;;;;;;;1501590;39;20034;-56
2021/05/04 01:04:45;;;;;;;10.98;6.35;;;;;;;;;;1501380;39;20061;-57
2021/05/04 01:05:47;;;;;;;8.93;6.30;;;;;;;;;;1501423;39;20375;-57
2021/05/04 01:06:49;;;;;;;10.50;6.38;;;;;;;;;;1501427;39;20023;-57
2021/05/04 01:07:51;;;;;;;8.00;5.78;;;;;;;;;;1501561;39;20018;-57
2021/05/04 01:08:52;;;;;;;10.68;6.47;;;;;;;;;;1501396;39;20057;-57
2021/05/04 01:09:53;;;;;;;12.15;6.28;;;;;;;;;;1501644;39;20034;-57
2021/05/04 01:10:56;;;;;;;9.48;5.82;;;;;;;;;;1501588;39;20031;-57
2021/05/04 01:11:57;;;;;;;9.48;5.88;;;;;;;;;;1501374;39;20022;-57
2021/05/04 01:12:58;;;;;;;8.63;5.95;;;;;;;;;;1501433;39;20283;-57
2021/05/04 01:14:00;;;;;;;9.23;6.13;;;;;;;;;;1501532;39;20030;-57
2021/05/04 01:15:01;;;;;;;9.38;5.32;;;;;;;;;;1501453;39;20023;-58
2021/05/04 01:16:02;;;;;;;10.30;5.95;;;;;;;;;;1501586;39;20030;-58
2021/05/04 01:17:03;;;;;;;9.82;6.22;;;;;;;;;;1501370;39;20033;-58
2021/05/04 01:18:04;;;;;;;9.02;6.25;;;;;;;;;;1501417;39;20023;-58
2021/05/04 01:19:05;;;;;;;10.18;6.30;;;;;;;;;;1501407;39;20398;-57
2021/05/04 01:20:08;;;;;;;9.07;6.13;;;;;;;;;;1501535;39;20038;-57
2021/05/04 01:21:10;;;;;;;10.65;5.68;;;;;;;;;;1501545;39;20027;-57
2021/05/04 01:22:11;;;;;;;11.15;6.18;;;;;;;;;;1501670;39;20034;-57
2021/05/04 01:23:19;;;;;;;11.18;5.65;;;;;;;;;;1501614;39;20034;-57
2021/05/04 01:24:25;;;;;;;9.75;6.50;;;;;;;;;;1501371;39;20050;-57
2021/05/04 01:25:26;;;;;;;8.80;6.05;;;;;;;;;;1501466;39;20279;-57
2021/05/04 01:26:27;;;;;;;8.65;5.68;;;;;;;;;;1501414;39;20030;-56
2021/05/04 01:27:28;;;;;;;8.25;6.22;;;;;;;;;;1501295;39;20033;-57
2021/05/04 01:28:29;;;;;;;9.98;6.45;;;;;;;;;;1501346;39;20034;-57
2021/05/04 01:29:31;;;;;;;9.75;5.72;;;;;;;;;;1501347;39;20031;-57
2021/05/04 01:30:32;;;;;;;9.32;5.95;;;;;;;;;;1501349;39;20030;-57
2021/05/04 01:31:33;;;;;;;9.60;5.68;;;;;;;;;;1501340;39;20027;-57
2021/05/04 01:32:34;;;;;;;11.90;5.70;;;;;;;;;;1501334;39;20034;-57
2021/05/04 01:33:35;;;;;;;9.85;6.05;;;;;;;;;;1501344;39;20023;-57
2021/05/04 01:34:37;;;;;;;9.85;6.07;;;;;;;;;;1501519;39;20027;-57
2021/05/04 01:35:38;;;;;;;10.35;6.00;;;;;;;;;;1501336;39;20415;-57
2021/05/04 01:36:40;;;;;;;7.82;5.72;;;;;;;;;;1501344;39;20023;-57
2021/05/04 01:37:41;;;;;;;9.63;6.45;;;;;;;;;;1501399;39;20298;-57
2021/05/04 01:38:42;;;;;;;9.82;6.20;;;;;;;;;;1501252;39;20111;-58
2021/05/04 01:39:45;;;;;;;8.93;5.68;;;;;;;;;;1501324;39;20096;-58
2021/05/04 01:40:46;;;;;;;8.65;5.78;;;;;;;;;;1501571;39;20023;-57
2021/05/04 01:41:47;;;;;;;7.45;5.65;;;;;;;;;;1501520;39;20031;-57
2021/05/04 01:42:48;;;;;;;7.57;5.60;;;;;;;;;;1501270;39;20030;-57
2021/05/04 01:44:09;;;;;;;8.65;5.72;;;;;;;;;;1501359;39;20034;-57
2021/05/04 01:45:10;;;;;;;8.32;5.47;;;;;;;;;;1501499;39;20023;-57
2021/05/04 01:46:12;;;;;;;11.23;6.18;;;;;;;;;;1501292;39;20035;-60
2021/05/04 01:47:13;;;;;;;7.97;5.45;;;;;;;;;;1501244;39;20301;-59
2021/05/04 01:48:14;;;;;;;8.60;5.95;;;;;;;;;;1501392;39;20378;-57
2021/05/04 01:49:15;;;;;;;7.35;5.47;;;;;;;;;;1501444;39;20034;-57
2021/05/04 01:50:17;;;;;;;9.93;5.70;;;;;;;;;;1501570;39;20023;-57
2021/05/04 01:51:18;;;;;;;9.35;5.90;;;;;;;;;;1500974;39;20034;-57
2021/05/04 01:52:20;;;;;;;8.88;5.20;;;;;;;;;;1501357;39;20114;-57
2021/05/04 01:53:21;;;;;;;9.43;5.97;;;;;;;;;;1501284;39;20038;-58
2021/05/04 01:54:23;;;;;;;9.98;5.85;;;;;;;;;;1501312;39;20031;-58
2021/05/04 01:55:24;;;;;;;8.27;5.78;;;;;;;;;;1501301;39;20027;-57
2021/05/04 01:56:26;;;;;;;7.72;5.30;;;;;;;;;;1501399;39;20039;-57
2021/05/04 01:57:27;;;;;;;7.50;5.72;;;;;;;;;;1501373;39;20402;-57
2021/05/04 01:58:28;;;;;;;8.30;5.70;;;;;;;;;;1501497;39;20031;-57
2021/05/04 01:59:30;;;;;;;10.38;5.93;;;;;;;;;;1501234;39;20031;-58
2021/05/04 02:00:31;;;;;;;9.85;6.20;;;;;;;;;;1501300;39;20037;-58
2021/05/04 02:01:32;;;;;;;8.27;5.50;;;;;;;;;;1501334;39;20039;-57
2021/05/04 02:02:34;;;;;;;8.20;5.45;;;;;;;;;;1501250;39;20030;-57
2021/05/04 02:03:35;;;;;;;8.18;5.20;;;;;;;;;;1501309;39;20027;-57
2021/05/04 02:04:36;;;;;;;9.63;5.65;;;;;;;;;;1501316;39;20374;-57
2021/05/04 02:05:37;;;;;;;7.68;5.72;;;;;;;;;;1501495;39;20023;-57
2021/05/04 02:06:38;;;;;;;8.43;6.07;;;;;;;;;;1501344;39;20387;-57
2021/05/04 02:07:40;;;;;;;10.07;5.80;;;;;;;;;;1501397;39;20067;-57
2021/05/04 02:08:41;;;;;;;9.90;5.70;;;;;;;;;;1501250;39;20393;-57
2021/05/04 02:09:42;;;;;;;13.05;6.40;;;;;;;;;;1501237;39;20391;-57
2021/05/04 02:10:43;;;;;;;8.23;5.65;;;;;;;;;;1501405;39;20029;-58
2021/05/04 02:11:44;;;;;;;10.52;6.07;;;;;;;;;;1501192;39;20390;-60
2021/05/04 02:12:46;;;;;;;8.98;5.60;;;;;;;;;;1501218;39;20031;-58
2021/05/04 02:13:46;;;;;;;8.15;5.32;;;;;;;;;;1501223;39;20026;-58
2021/05/04 02:14:48;;;;;;;9.07;5.70;;;;;;;;;;1501380;39;20034;-58
2021/05/04 02:15:49;;;;;;;9.32;5.80;;;;;;;;;;1501400;39;20031;-58
2021/05/04 02:16:50;;;;;;;9.73;5.65;;;;;;;;;;1501471;39;20023;-58
2021/05/04 02:17:51;;;;;;;9.23;6.20;;;;;;;;;;1501267;39;20304;-58
2021/05/04 02:18:54;;;;;;;10.43;5.78;;;;;;;;;;1501164;39;20074;-58
2021/05/04 02:19:55;;;;;;;9.43;5.50;;;;;;;;;;1501224;39;20030;-57
2021/05/04 02:21:07;;;;;;;8.68;5.53;;;;;;;;;;1501419;39;20031;-58
2021/05/04 02:22:09;;;;;;;9.48;5.68;;;;;;;;;;1501186;39;20395;-58
2021/05/04 02:23:11;;;;;;;9.30;5.78;;;;;;;;;;1501271;39;20034;-58
2021/05/04 02:24:12;;;;;;;13.55;5.60;;;;;;;;;;1501172;39;20085;-58
2021/05/04 02:25:22;;;;;;;9.50;5.47;;;;;;;;;;1501357;39;20031;-58
2021/05/04 02:26:23;;;;;;;7.80;5.65;;;;;;;;;;1501367;39;20107;-58
2021/05/04 02:27:24;;;;;;;7.75;5.32;;;;;;;;;;1501363;39;20035;-58
2021/05/04 02:28:25;;;;;;;7.30;5.53;;;;;;;;;;1501384;39;20038;-58
2021/05/04 02:29:27;;;;;;;8.02;5.30;;;;;;;;;;1501084;39;20390;-58
2021/05/04 02:30:44;;;;;;;9.18;5.60;;;;;;;;;;1501211;39;20027;-58
2021/05/04 02:31:45;;;;;;;8.32;5.40;;;;;;;;;;1501167;39;20027;-59
2021/05/04 02:32:46;;;;;;;8.18;4.85;;;;;;;;;;1501154;39;20107;-58
2021/05/04 02:33:47;;;;;;;11.27;5.70;;;;;;;;;;1501382;39;20107;-58
2021/05/04 02:34:48;;;;;;;8.07;5.60;;;;;;;;;;1501141;39;20027;-58
2021/05/04 02:35:49;;;;;;;8.50;5.70;;;;;;;;;;1501197;39;20027;-58
2021/05/04 02:36:50;;;;;;;7.88;5.57;;;;;;;;;;1501144;39;20035;-58
2021/05/04 02:37:51;;;;;;;9.32;5.97;;;;;;;;;;1501360;39;20039;-58
2021/05/04 02:38:53;;;;;;;8.77;5.50;;;;;;;;;;1501281;39;20051;-58
2021/05/04 02:39:54;;;;;;;9.45;5.85;;;;;;;;;;1501222;39;20053;-58
2021/05/04 02:40:56;;;;;;;9.02;5.15;;;;;;;;;;1501151;39;20037;-58
2021/05/04 02:41:57;;;;;;;7.40;5.65;;;;;;;;;;1501219;39;20031;-58
2021/05/04 02:42:58;;;;;;;8.30;4.78;;;;;;;;;;1501319;39;20023;-58
2021/05/04 02:43:59;;;;;;;8.80;5.53;;;;;;;;;;1501122;39;20306;-58
2021/05/04 02:45:00;;;;;;;7.60;5.72;;;;;;;;;;1501131;39;20027;-58
2021/05/04 02:46:02;;;;;;;6.60;4.82;;;;;;;;;;1501123;39;20026;-58
2021/05/04 02:47:03;;;;;;;10.48;6.60;;;;;;;;;;1501243;39;20038;-58
2021/05/04 02:48:05;;;;;;;10.93;6.03;;;;;;;;;;1501274;39;20030;-58
2021/05/04 02:49:06;;;;;;;8.13;5.40;;;;;;;;;;1501262;39;20038;-58
2021/05/04 02:50:08;;;;;;;7.93;5.03;;;;;;;;;;1501221;39;20344;-58
2021/05/04 02:51:11;;;;;;;8.93;5.43;;;;;;;;;;1501080;39;20023;-58
2021/05/04 02:52:12;;;;;;;9.63;5.93;;;;;;;;;;1501049;39;20023;-58
2021/05/04 02:53:13;;;;;;;9.70;5.15;;;;;;;;;;1500948;39;20043;-58
2021/05/04 02:54:15;;;;;;;9.00;5.70;;;;;;;;;;1496472;39;20063;-58
2021/05/04 02:55:16;;;;;;;11.23;5.97;;;;;;;;;;1496476;39;20027;-57
2021/05/04 02:56:18;;;;;;;7.95;5.43;;;;;;;;;;1501067;39;20023;-58
2021/05/04 02:57:20;;;;;;;8.20;5.40;;;;;;;;;;1501256;39;20027;-57
2021/05/04 02:58:21;;;;;;;9.15;5.93;;;;;;;;;;1501337;39;20026;-58
2021/05/04 02:59:22;;;;;;;8.30;5.65;;;;;;;;;;1501201;39;20031;-58
2021/05/04 03:00:24;;;;;;;7.90;5.05;;;;;;;;;;1501217;39;20034;-58
2021/05/04 03:01:24;;;;;;;8.55;5.70;;;;;;;;;;1501263;39;20031;-58
2021/05/04 03:02:26;;;;;;;9.20;5.28;;;;;;;;;;1501562;39;20107;-58
2021/05/04 03:03:27;;;;;;;6.68;5.03;;;;;;;;;;1501949;39;20023;-58
2021/05/04 03:04:28;;;;;;;7.70;5.40;;;;;;;;;;1501745;39;20023;-58
2021/05/04 03:05:29;;;;;;;8.55;5.78;;;;;;;;;;1501906;39;20034;-58
2021/05/04 03:06:30;;;;;;;7.43;5.07;;;;;;;;;;1501760;39;20034;-58
2021/05/04 03:07:31;;;;;;;7.75;5.03;;;;;;;;;;1501822;39;20103;-58
2021/05/04 03:08:33;;;;;;;8.80;5.40;;;;;;;;;;1501611;39;20031;-59
2021/05/04 03:09:35;;;;;;;7.00;5.13;;;;;;;;;;1502153;39;20027;-60
2021/05/04 03:10:37;;;;;;;9.25;5.20;;;;;;;;;;1501939;39;20034;-60
2021/05/04 03:11:38;;;;;;;7.95;5.03;;;;;;;;;;1501907;39;20031;-60
2021/05/04 03:12:39;;;;;;;8.35;5.35;;;;;;;;;;1501698;39;20108;-60
2021/05/04 03:13:40;;;;;;;9.38;5.68;;;;;;;;;;1501868;39;20019;-60
2021/05/04 03:14:41;;;;;;;7.10;5.10;;;;;;;;;;1501726;39;20023;-60
2021/05/04 03:15:42;;;;;;;8.50;5.20;;;;;;;;;;1501877;39;20023;-60
2021/05/04 03:16:43;;;;;;;9.90;5.95;;;;;;;;;;1501658;39;20027;-59
2021/05/04 03:17:44;;;;;;;8.02;5.20;;;;;;;;;;1501652;39;20031;-60
2021/05/04 03:18:45;;;;;;;7.93;5.38;;;;;;;;;;1501752;39;20037;-60
2021/05/04 03:19:46;;;;;;;9.30;6.03;;;;;;;;;;1501692;39;20034;-60
2021/05/04 03:20:49;;;;;;;7.40;5.15;;;;;;;;;;1501697;39;20038;-60
2021/05/04 03:21:49;;;;;;;8.00;5.43;;;;;;;;;;1501782;39;20286;-60
2021/05/04 03:22:51;;;;;;;8.93;5.10;;;;;;;;;;1501654;39;20031;-60
2021/05/04 03:23:52;;;;;;;7.63;5.03;;;;;;;;;;1501873;39;20027;-61
2021/05/04 03:24:55;;;;;;;7.07;4.90;;;;;;;;;;1501904;39;20086;-61
2021/05/04 03:25:56;;;;;;;9.02;5.28;;;;;;;;;;1501817;39;20026;-60
2021/05/04 03:26:57;;;;;;;9.48;5.50;;;;;;;;;;1501806;39;20035;-60
2021/05/04 03:27:59;;;;;;;8.18;5.10;;;;;;;;;;1501727;39;20027;-60
2021/05/04 03:29:00;;;;;;;10.40;5.32;;;;;;;;;;1501774;39;20031;-60
2021/05/04 03:30:02;;;;;;;8.73;5.50;;;;;;;;;;1501915;39;20031;-60
2021/05/04 03:31:03;;;;;;;7.70;5.00;;;;;;;;;;1501829;39;20031;-60
2021/05/04 03:32:04;;;;;;;8.40;5.35;;;;;;;;;;1501703;39;20292;-60
2021/05/04 03:33:06;;;;;;;9.98;5.78;;;;;;;;;;1501725;39;20123;-60
2021/05/04 03:34:07;;;;;;;7.90;4.75;;;;;;;;;;1501626;39;20368;-60
2021/05/04 03:35:09;;;;;;;9.05;5.38;;;;;;;;;;1501716;39;20027;-60
2021/05/04 03:36:10;;;;;;;10.95;5.70;;;;;;;;;;1501701;39;20035;-60
2021/05/04 03:37:11;;;;;;;7.65;5.03;;;;;;;;;;1501715;39;20314;-61
2021/05/04 03:38:12;;;;;;;9.80;5.60;;;;;;;;;;1501797;39;20019;-60
2021/05/04 03:39:13;;;;;;;7.45;4.68;;;;;;;;;;1501535;39;20035;-60
2021/05/04 03:40:16;;;;;;;6.90;4.47;;;;;;;;;;1501809;39;20038;-61
2021/05/04 03:41:17;;;;;;;7.55;4.72;;;;;;;;;;1501649;39;20027;-60
2021/05/04 03:42:18;;;;;;;6.68;5.00;;;;;;;;;;1501646;39;20047;-60
2021/05/04 03:43:19;;;;;;;9.98;5.07;;;;;;;;;;1501616;39;20049;-60
2021/05/04 03:44:20;;;;;;;7.10;4.90;;;;;;;;;;1501661;39;20031;-60
2021/05/04 03:45:21;;;;;;;6.85;5.20;;;;;;;;;;1496973;39;20112;-60
2021/05/04 03:46:22;;;;;;;9.27;5.53;;;;;;;;;;1497066;39;20028;-60
2021/05/04 03:47:23;;;;;;;9.05;5.57;;;;;;;;;;1501768;39;20103;-60
2021/05/04 03:48:24;;;;;;;8.27;4.95;;;;;;;;;;1501631;39;20035;-60
2021/05/04 03:49:25;;;;;;;8.30;5.63;;;;;;;;;;1501544;39;20042;-60
2021/05/04 03:50:28;;;;;;;8.50;5.10;;;;;;;;;;1501597;39;20035;-60
2021/05/04 03:51:30;;;;;;;7.20;4.70;;;;;;;;;;1501577;39;20027;-61
2021/05/04 03:52:32;;;;;;;8.38;5.15;;;;;;;;;;1501668;39;20031;-60
2021/05/04 03:53:33;;;;;;;7.97;4.78;;;;;;;;;;1501801;39;20026;-60
2021/05/04 03:54:34;;;;;;;7.38;5.13;;;;;;;;;;1501764;39;20088;-60
2021/05/04 03:55:36;;;;;;;7.10;5.18;;;;;;;;;;1501570;39;20026;-60
2021/05/04 03:56:38;;;;;;;9.85;5.07;;;;;;;;;;1501676;39;20034;-61
2021/05/04 03:57:39;;;;;;;7.53;5.15;;;;;;;;;;1501766;39;20034;-60
2021/05/04 03:58:41;;;;;;;8.25;5.30;;;;;;;;;;1501651;39;20023;-60
2021/05/04 03:59:42;;;;;;;7.50;5.03;;;;;;;;;;1501722;39;20034;-60
2021/05/04 04:00:43;;;;;;;7.03;5.13;;;;;;;;;;1501747;39;20298;-60
2021/05/04 04:01:44;;;;;;;8.20;5.50;;;;;;;;;;1501847;39;20050;-60
2021/05/04 04:02:45;;;;;;;8.43;5.10;;;;;;;;;;1501747;39;20379;-60
2021/05/04 04:03:47;;;;;;;6.72;4.90;;;;;;;;;;1501555;39;20042;-61
2021/05/04 04:04:49;;;;;;;7.95;5.40;;;;;;;;;;1501732;39;20030;-60
2021/05/04 04:05:50;;;;;;;7.90;5.28;;;;;;;;;;1501621;39;20434;-60
2021/05/04 04:06:52;;;;;;;9.68;5.20;;;;;;;;;;1501626;39;20138;-60
2021/05/04 04:07:53;;;;;;;8.23;4.93;;;;;;;;;;1501674;39;20106;-61
2021/05/04 04:08:55;;;;;;;8.30;5.32;;;;;;;;;;1501685;39;20043;-60
2021/05/04 04:09:56;;;;;;;12.48;5.75;;;;;;;;;;1501576;39;20279;-60
2021/05/04 04:10:58;;;;;;;8.75;5.38;;;;;;;;;;1501567;39;20111;-60
2021/05/04 04:11:59;;;;;;;8.98;4.80;;;;;;;;;;1501549;39;20023;-60
2021/05/04 04:13:00;;;;;;;7.38;4.80;;;;;;;;;;1501688;39;20034;-60
2021/05/04 04:14:01;;;;;;;9.48;5.18;;;;;;;;;;1501472;39;20023;-61
2021/05/04 04:15:02;;;;;;;11.07;5.32;;;;;;;;;;1501667;39;20123;-60
2021/05/04 04:16:04;;;;;;;8.75;5.80;;;;;;;;;;1501511;39;20123;-60
2021/05/04 04:17:05;;;;;;;8.48;5.32;;;;;;;;;;1501685;39;20027;-60
2021/05/04 04:18:06;;;;;;;10.95;5.60;;;;;;;;;;1501510;39;20023;-60
2021/05/04 04:19:08;;;;;;;7.15;4.68;;;;;;;;;;1501466;39;20074;-61
2021/05/04 04:20:09;;;;;;;8.20;5.45;;;;;;;;;;1501721;39;20080;-60
2021/05/04 04:21:10;;;;;;;8.65;5.03;;;;;;;;;;1501730;39;20027;-59
2021/05/04 04:22:11;;;;;;;8.98;5.10;;;;;;;;;;1501500;39;20034;-61
2021/05/04 04:23:13;;;;;;;8.25;5.22;;;;;;;;;;1501607;39;20019;-60
2021/05/04 04:24:13;;;;;;;8.20;4.97;;;;;;;;;;1501386;39;20023;-62
2021/05/04 04:25:15;;;;;;;8.25;4.75;;;;;;;;;;1501722;39;20031;-60
2021/05/04 04:26:17;;;;;;;7.65;4.97;;;;;;;;;;1501708;39;20112;-60
2021/05/04 04:27:18;;;;;;;8.23;4.78;;;;;;;;;;1501449;39;20410;-61
2021/05/04 04:28:19;;;;;;;8.48;5.32;;;;;;;;;;1501479;39;20041;-61
2021/05/04 04:29:20;;;;;;;7.03;4.15;;;;;;;;;;1501523;39;20035;-60
2021/05/04 04:30:24;;;;;;;8.20;4.70;;;;;;;;;;1501680;39;20111;-60
2021/05/04 04:31:25;;;;;;;8.73;5.13;;;;;;;;;;1501681;39;20035;-61
2021/05/04 04:32:26;;;;;;;8.15;4.60;;;;;;;;;;1501516;39;20314;-60
2021/05/04 04:33:28;;;;;;;7.40;4.45;;;;;;;;;;1501546;39;20031;-60
2021/05/04 04:34:29;;;;;;;8.85;4.72;;;;;;;;;;1501473;39;20034;-60
2021/05/04 04:35:30;;;;;;;8.80;4.50;;;;;;;;;;1501441;39;20034;-61
2021/05/04 04:36:31;;;;;;;7.43;4.30;;;;;;;;;;1501669;39;20074;-61
2021/05/04 04:37:32;;;;;;;8.75;4.68;;;;;;;;;;1501650;39;20287;-61
2021/05/04 04:38:33;;;;;;;8.45;5.00;;;;;;;;;;1501393;39;20383;-60
2021/05/04 04:39:34;;;;;;;10.35;4.38;;;;;;;;;;1501449;39;20034;-61
2021/05/04 04:40:35;;;;;;;7.95;5.22;;;;;;;;;;1501687;39;20034;-60
2021/05/04 04:41:40;;;;;;;8.45;4.93;;;;;;;;;;1501457;39;20298;-61
2021/05/04 04:42:41;;;;;;;8.95;4.20;;;;;;;;;;1501707;39;20074;-60
2021/05/04 04:43:42;;;;;;;9.00;4.90;;;;;;;;;;1501467;39;20031;-61
2021/05/04 04:44:43;;;;;;;8.13;4.72;;;;;;;;;;1501484;39;20035;-61
2021/05/04 04:45:45;;;;;;;6.72;4.07;;;;;;;;;;1501552;39;20271;-61
2021/05/04 04:46:46;;;;;;;7.63;4.95;;;;;;;;;;1501686;39;20083;-61
2021/05/04 04:47:47;;;;;;;10.38;4.90;;;;;;;;;;1501405;39;20275;-61
2021/05/04 04:48:48;;;;;;;7.50;4.65;;;;;;;;;;1501420;39;20409;-61
2021/05/04 04:49:49;;;;;;;7.38;4.55;;;;;;;;;;1501694;39;20033;-61
2021/05/04 04:50:51;;;;;;;8.00;4.60;;;;;;;;;;1501409;39;20482;-61
2021/05/04 04:51:51;;;;;;;8.48;4.60;;;;;;;;;;1501539;39;20027;-61
2021/05/04 04:52:54;;;;;;;7.75;4.60;;;;;;;;;;1501443;39;20031;-60
2021/05/04 04:53:55;;;;;;;7.95;4.50;;;;;;;;;;1501534;39;20379;-60
2021/05/04 04:54:56;;;;;;;10.48;4.72;;;;;;;;;;1501411;39;20409;-60
2021/05/04 04:55:57;;;;;;;8.95;4.78;;;;;;;;;;1501425;39;20106;-60
2021/05/04 04:56:59;;;;;;;8.45;4.43;;;;;;;;;;1501608;39;20031;-61
2021/05/04 04:58:00;;;;;;;7.45;4.82;;;;;;;;;;1501407;39;20467;-61
2021/05/04 04:59:02;;;;;;;8.50;4.93;;;;;;;;;;1501394;39;20047;-60
2021/05/04 05:00:04;;;;;;;8.32;4.72;;;;;;;;;;1501571;39;20038;-60
2021/05/04 05:01:05;;;;;;;7.88;4.55;;;;;;;;;;1501426;39;20305;-61
2021/05/04 05:02:06;;;;;;;7.97;4.78;;;;;;;;;;1501426;39;20035;-61
2021/05/04 05:03:07;;;;;;;8.52;5.07;;;;;;;;;;1501586;39;20039;-61
2021/05/04 05:04:08;;;;;;;8.23;4.50;;;;;;;;;;1501405;39;20038;-62
2021/05/04 05:05:10;;;;;;;11.52;4.90;;;;;;;;;;1501404;39;20026;-60
2021/05/04 05:06:11;;;;;;;6.78;4.18;;;;;;;;;;1501571;39;20030;-61
2021/05/04 05:07:13;;;;;;;7.90;4.57;;;;;;;;;;1501563;39;20406;-61
2021/05/04 05:08:13;;;;;;;7.20;4.40;;;;;;;;;;1501425;39;20023;-62
2021/05/04 05:09:15;;;;;;;7.38;4.63;;;;;;;;;;1501558;39;20039;-61
2021/05/04 05:10:15;;;;;;;8.57;4.97;;;;;;;;;;1501427;39;20271;-61
2021/05/04 05:11:17;;;;;;;9.13;4.53;;;;;;;;;;1501414;39;20037;-61
2021/05/04 05:12:19;;;;;;;8.40;4.43;;;;;;;;;;1501365;39;20106;-61
2021/05/04 05:13:21;;;;;;;7.15;4.75;;;;;;;;;;1501426;39;20023;-62
2021/05/04 05:14:22;;;;;;;7.18;4.70;;;;;;;;;;1501587;39;20030;-61
2021/05/04 05:15:23;;;;;;;11.43;4.97;;;;;;;;;;1501380;39;20379;-61
2021/05/04 05:16:24;;;;;;;8.38;4.10;;;;;;;;;;1501587;39;20110;-61
2021/05/04 05:17:25;;;;;;;8.43;4.72;;;;;;;;;;1501569;39;20279;-61
2021/05/04 05:18:26;;;;;;;6.63;4.53;;;;;;;;;;1501399;39;20387;-62
2021/05/04 05:19:27;;;;;;;7.60;4.80;;;;;;;;;;1501367;39;20416;-61
2021/05/04 05:20:28;;;;;;;8.55;4.70;;;;;;;;;;1501509;39;20030;-61
2021/05/04 05:21:30;;;;;;;6.65;4.43;;;;;;;;;;1501414;39;20306;-61
2021/05/04 05:22:31;;;;;;;8.40;4.75;;;;;;;;;;1501546;39;20027;-61
2021/05/04 05:23:33;;;;;;;6.35;4.45;;;;;;;;;;1501582;39;20027;-62
2021/05/04 05:24:35;;;;;;;8.30;4.22;;;;;;;;;;1501490;39;20043;-60
2021/05/04 05:25:35;;;;;;;8.27;4.80;;;;;;;;;;1501124;39;20275;-61
2021/05/04 05:26:37;;;;;;;7.53;4.18;;;;;;;;;;1501091;39;20136;-61
2021/05/04 05:27:39;;;;;;;11.32;5.70;;;;;;;;;;1501343;39;20023;-62
2021/05/04 05:28:40;;;;;;;6.35;3.97;;;;;;;;;;1501531;39;20031;-61
2021/05/04 05:29:41;;;;;;;5.50;4.30;;;;;;;;;;1501506;39;20030;-62
2021/05/04 05:30:43;;;;;;;7.93;4.50;;;;;;;;;;1501571;39;20057;-61
2021/05/04 05:31:44;;;;;;;5.15;4.10;;;;;;;;;;1501453;39;20268;-61
2021/05/04 05:32:45;;;;;;;8.93;4.55;;;;;;;;;;1501472;39;20041;-61
2021/05/04 05:33:46;;;;;;;10.25;5.15;;;;;;;;;;1501439;39;20383;-61
2021/05/04 05:34:47;;;;;;;8.93;5.30;;;;;;;;;;1501330;39;20036;-62
2021/05/04 05:35:49;;;;;;;7.30;4.78;;;;;;;;;;1496691;39;20089;-61
2021/05/04 05:36:50;;;;;;;7.53;4.55;;;;;;;;;;1496612;39;20433;-62
2021/05/04 05:37:51;;;;;;;7.20;4.45;;;;;;;;;;1501480;39;20026;-61
2021/05/04 05:38:52;;;;;;;7.28;3.88;;;;;;;;;;1501507;39;20039;-61
2021/05/04 05:39:53;;;;;;;8.40;4.75;;;;;;;;;;1501492;39;20037;-61
2021/05/04 05:40:55;;;;;;;8.13;4.32;;;;;;;;;;1501481;39;20050;-61
2021/05/04 05:41:56;;;;;;;7.15;4.13;;;;;;;;;;1501479;39;20042;-62
2021/05/04 05:42:58;;;;;;;9.27;4.65;;;;;;;;;;1501349;39;20031;-62
2021/05/04 05:43:59;;;;;;;7.95;4.00;;;;;;;;;;1501285;39;20111;-62
2021/05/04 05:45:01;;;;;;;13.15;4.10;;;;;;;;;;1501547;39;20111;-61
2021/05/04 05:46:02;;;;;;;7.50;4.53;;;;;;;;;;1501467;39;20027;-61
2021/05/04 05:47:04;;;;;;;10.65;4.68;;;;;;;;;;1501280;39;20046;-61
2021/05/04 05:48:05;;;;;;;12.75;4.55;;;;;;;;;;1501309;39;20034;-62
2021/05/04 05:49:06;;;;;;;6.00;4.00;;;;;;;;;;1501214;39;20038;-61
2021/05/04 05:50:08;;;;;;;9.07;4.35;;;;;;;;;;1501385;39;20023;-61
2021/05/04 05:51:10;;;;;;;8.43;3.95;;;;;;;;;;1501245;39;20099;-62
2021/05/04 05:52:10;;;;;;;11.45;4.47;;;;;;;;;;1501372;39;20309;-62
2021/05/04 05:53:13;;;;;;;5.57;3.75;;;;;;;;;;1501440;39;20027;-61
2021/05/04 05:54:13;;;;;;;7.43;4.13;;;;;;;;;;1496586;39;20023;-62
2021/05/04 05:55:15;;;;;;;8.95;4.10;;;;;;;;;;1496600;39;20027;-62
2021/05/04 05:56:16;;;;;;;6.45;3.72;;;;;;;;;;1501252;39;20034;-62
2021/05/04 05:57:17;;;;;;;7.22;4.00;;;;;;;;;;1501322;39;20027;-62
2021/05/04 05:58:19;;;;;;;6.25;4.18;;;;;;;;;;1501460;39;20023;-62
2021/05/04 05:59:20;;;;;;;6.18;3.92;;;;;;;;;;1501461;39;20039;-61
2021/05/04 06:00:21;;;;;;;8.20;4.07;;;;;;;;;;1501324;39;20401;-62
2021/05/04 06:01:23;;;;;;;8.38;4.00;;;;;;;;;;1501269;39;20508;-62
2021/05/04 06:02:24;;;;;;;11.73;4.53;;;;;;;;;;1501423;39;20023;-62
2021/05/04 06:03:27;;;;;;;6.13;3.80;;;;;;;;;;1501428;39;20409;-62
2021/05/04 06:04:28;;;;;;;7.35;4.00;;;;;;;;;;1501198;39;20091;-61
2021/05/04 06:05:30;;;;;;;9.18;4.10;;;;;;;;;;1501459;39;20103;-62
2021/05/04 06:06:30;;;;;;;6.70;4.15;;;;;;;;;;1501261;39;20023;-62
2021/05/04 06:07:32;;;;;;;6.00;3.67;;;;;;;;;;1501126;39;20026;-62